sensor_id;sensor_type;location;lat;lon;timestamp;pressure;altitude;pressure_sealevel;temperature;humidity
20111;BME280;10216;42.658;23.248;2022-09-30T00:01:47;93423.91;;;13.26;100.00
20111;BME280;10216;42.658;23.248;2022-09-30T00:04:18;93430.06;;;13.25;100.00
20111;BME280;10216;42.658;23.248;2022-09-30T00:06:44;93436.00;;;13.25;100.00
20111;BME280;10216;42.658;23.248;2022-09-30T00:09:11;93417.94;;;13.25;100.00
20111;BME280;10216;42.658;23.248;2022-09-30T00:11:37;93425.31;;;13.28;100.00
20111;BME280;10216;42.658;23.248;2022-09-30T00:14:04;93418.81;;;13.33;100.00
20111;BME280;10216;42.658;23.248;2022-09-30T00:16:34;93411.09;;;13.33;100.00
20111;BME280;10216;42.658;23.248;2022-09-30T00:19:00;93412.88;;;13.32;100.00
20111;BME280;10216;42.658;23.248;2022-09-30T00:21:26;93427.31;;;13.33;100.00
20111;BME280;10216;42.658;23.248;2022-09-30T00:23:53;93431.09;;;13.31;100.00
20111;BME280;10216;42.658;23.248;2022-09-30T00:26:20;93438.56;;;13.25;100.00
20111;BME280;10216;42.658;23.248;2022-09-30T00:28:49;93451.06;;;13.22;100.00
20111;BME280;10216;42.658;23.248;2022-09-30T00:31:16;93445.72;;;13.02;100.00
20111;BME280;10216;42.658;23.248;2022-09-30T00:33:42;93433.25;;;12.84;100.00
20111;BME280;10216;42.658;23.248;2022-09-30T00:36:09;93433.63;;;13.03;100.00
20111;BME280;10216;42.658;23.248;2022-09-30T00:38:34;93429.59;;;13.15;100.00
20111;BME280;10216;42.658;23.248;2022-09-30T00:41:02;93422.25;;;13.18;100.00
20111;BME280;10216;42.658;23.248;2022-09-30T00:43:56;93415.53;;;13.17;100.00
20111;BME280;10216;42.658;23.248;2022-09-30T00:46:38;93412.97;;;13.17;100.00
20111;BME280;10216;42.658;23.248;2022-09-30T00:49:10;93414.34;;;13.20;100.00
20111;BME280;10216;42.658;23.248;2022-09-30T00:51:40;93413.75;;;13.18;100.00
20111;BME280;10216;42.658;23.248;2022-09-30T00:54:17;93424.06;;;13.18;100.00
20111;BME280;10216;42.658;23.248;2022-09-30T00:56:51;93426.66;;;13.18;100.00
20111;BME280;10216;42.658;23.248;2022-09-30T00:59:21;93430.56;;;13.14;100.00
20111;BME280;10216;42.658;23.248;2022-09-30T01:01:48;93423.38;;;13.09;100.00
20111;BME280;10216;42.658;23.248;2022-09-30T01:04:16;93416.78;;;13.07;100.00
20111;BME280;10216;42.658;23.248;2022-09-30T01:06:45;93432.47;;;13.12;100.00
20111;BME280;10216;42.658;23.248;2022-09-30T01:09:11;93424.69;;;13.05;100.00
20111;BME280;10216;42.658;23.248;2022-09-30T01:11:37;93427.28;;;13.05;100.00
20111;BME280;10216;42.658;23.248;2022-09-30T01:14:16;93422.69;;;13.01;100.00
20111;BME280;10216;42.658;23.248;2022-09-30T01:16:50;93419.44;;;12.92;100.00
20111;BME280;10216;42.658;23.248;2022-09-30T01:33:33;93432.22;;;12.79;100.00
20111;BME280;10216;42.658;23.248;2022-09-30T01:41:44;93425.22;;;12.73;100.00
20111;BME280;10216;42.658;23.248;2022-09-30T01:47:18;93432.78;;;12.74;100.00
20111;BME280;10216;42.658;23.248;2022-09-30T01:49:56;93433.47;;;12.68;100.00
20111;BME280;10216;42.658;23.248;2022-09-30T01:55:12;93428.31;;;12.68;100.00
20111;BME280;10216;42.658;23.248;2022-09-30T01:57:46;93424.97;;;12.68;100.00
20111;BME280;10216;42.658;23.248;2022-09-30T02:03:01;93434.22;;;12.62;100.00
20111;BME280;10216;42.658;23.248;2022-09-30T02:05:36;93426.97;;;12.51;100.00
20111;BME280;10216;42.658;23.248;2022-09-30T02:08:46;93433.00;;;12.58;100.00
20111;BME280;10216;42.658;23.248;2022-09-30T02:11:29;93444.16;;;12.65;100.00
20111;BME280;10216;42.658;23.248;2022-09-30T02:14:19;93441.94;;;12.62;100.00
20111;BME280;10216;42.658;23.248;2022-09-30T02:17:01;93438.16;;;12.58;100.00
20111;BME280;10216;42.658;23.248;2022-09-30T02:19:45;93441.06;;;12.55;100.00
20111;BME280;10216;42.658;23.248;2022-09-30T02:24:41;93443.66;;;12.55;100.00
20111;BME280;10216;42.658;23.248;2022-09-30T02:27:18;93442.84;;;12.55;100.00
20111;BME280;10216;42.658;23.248;2022-09-30T02:29:48;93440.47;;;12.53;100.00
20111;BME280;10216;42.658;23.248;2022-09-30T02:32:21;93439.69;;;12.52;100.00
20111;BME280;10216;42.658;23.248;2022-09-30T02:34:52;93447.41;;;12.52;100.00
20111;BME280;10216;42.658;23.248;2022-09-30T02:37:27;93439.25;;;12.49;100.00
20111;BME280;10216;42.658;23.248;2022-09-30T02:42:26;93434.94;;;12.56;100.00
20111;BME280;10216;42.658;23.248;2022-09-30T02:44:57;93428.19;;;12.55;100.00
20111;BME280;10216;42.658;23.248;2022-09-30T02:50:15;93430.03;;;12.40;100.00
20111;BME280;10216;42.658;23.248;2022-09-30T02:55:35;93442.19;;;12.46;100.00
20111;BME280;10216;42.658;23.248;2022-09-30T02:58:12;93433.94;;;12.36;100.00
20111;BME280;10216;42.658;23.248;2022-09-30T03:00:39;93431.56;;;12.34;100.00
20111;BME280;10216;42.658;23.248;2022-09-30T03:03:15;93445.47;;;12.40;100.00
20111;BME280;10216;42.658;23.248;2022-09-30T03:05:43;93456.16;;;12.37;100.00
20111;BME280;10216;42.658;23.248;2022-09-30T03:08:12;93458.78;;;12.43;100.00
20111;BME280;10216;42.658;23.248;2022-09-30T03:10:38;93456.03;;;12.45;100.00
20111;BME280;10216;42.658;23.248;2022-09-30T03:16:09;93455.34;;;12.36;100.00
20111;BME280;10216;42.658;23.248;2022-09-30T03:19:19;93460.50;;;12.36;100.00
20111;BME280;10216;42.658;23.248;2022-09-30T03:22:04;93455.34;;;12.36;100.00
20111;BME280;10216;42.658;23.248;2022-09-30T03:35:18;93464.53;;;12.81;100.00
20111;BME280;10216;42.658;23.248;2022-09-30T03:41:02;93460.13;;;12.97;100.00
20111;BME280;10216;42.658;23.248;2022-09-30T03:44:00;93455.84;;;13.04;100.00
20111;BME280;10216;42.658;23.248;2022-09-30T03:46:33;93475.84;;;13.02;100.00
20111;BME280;10216;42.658;23.248;2022-09-30T03:49:06;93474.38;;;13.14;100.00
20111;BME280;10216;42.658;23.248;2022-09-30T03:51:35;93481.97;;;13.22;100.00
20111;BME280;10216;42.658;23.248;2022-09-30T03:54:07;93476.47;;;13.25;100.00
20111;BME280;10216;42.658;23.248;2022-09-30T03:56:34;93486.03;;;13.31;100.00
20111;BME280;10216;42.658;23.248;2022-09-30T03:59:00;93484.72;;;13.42;100.00
20111;BME280;10216;42.658;23.248;2022-09-30T04:01:25;93488.31;;;13.47;100.00
20111;BME280;10216;42.658;23.248;2022-09-30T04:03:52;93492.03;;;13.38;100.00
20111;BME280;10216;42.658;23.248;2022-09-30T04:06:20;93489.47;;;13.38;100.00
20111;BME280;10216;42.658;23.248;2022-09-30T04:08:45;93480.41;;;13.49;100.00
20111;BME280;10216;42.658;23.248;2022-09-30T04:11:11;93475.63;;;13.46;100.00
20111;BME280;10216;42.658;23.248;2022-09-30T04:13:37;93474.09;;;13.51;100.00
20111;BME280;10216;42.658;23.248;2022-09-30T04:16:04;93481.78;;;13.45;100.00
20111;BME280;10216;42.658;23.248;2022-09-30T04:18:32;93482.47;;;13.32;100.00
20111;BME280;10216;42.658;23.248;2022-09-30T04:20:58;93474.53;;;13.34;100.00
20111;BME280;10216;42.658;23.248;2022-09-30T04:23:24;93470.44;;;13.39;100.00
20111;BME280;10216;42.658;23.248;2022-09-30T04:25:53;93465.78;;;13.28;100.00
20111;BME280;10216;42.658;23.248;2022-09-30T04:28:19;93479.69;;;13.12;100.00
20111;BME280;10216;42.658;23.248;2022-09-30T04:30:45;93483.38;;;13.03;100.00
20111;BME280;10216;42.658;23.248;2022-09-30T04:33:10;93497.19;;;12.96;100.00
20111;BME280;10216;42.658;23.248;2022-09-30T04:35:37;93490.16;;;12.89;100.00
20111;BME280;10216;42.658;23.248;2022-09-30T04:38:03;93497.59;;;12.99;100.00
20111;BME280;10216;42.658;23.248;2022-09-30T04:40:34;93491.13;;;13.03;100.00
20111;BME280;10216;42.658;23.248;2022-09-30T04:43:00;93484.59;;;13.07;100.00
20111;BME280;10216;42.658;23.248;2022-09-30T04:45:25;93501.47;;;13.10;100.00
20111;BME280;10216;42.658;23.248;2022-09-30T04:47:51;93506.91;;;13.15;100.00
20111;BME280;10216;42.658;23.248;2022-09-30T04:50:16;93510.91;;;13.17;100.00
20111;BME280;10216;42.658;23.248;2022-09-30T04:52:42;93530.03;;;13.29;100.00
20111;BME280;10216;42.658;23.248;2022-09-30T04:55:08;93532.06;;;13.34;100.00
20111;BME280;10216;42.658;23.248;2022-09-30T04:57:36;93536.97;;;13.29;100.00
20111;BME280;10216;42.658;23.248;2022-09-30T05:00:02;93540.22;;;13.38;100.00
20111;BME280;10216;42.658;23.248;2022-09-30T05:02:28;93535.25;;;13.36;100.00
20111;BME280;10216;42.658;23.248;2022-09-30T05:04:56;93520.28;;;13.46;100.00
20111;BME280;10216;42.658;23.248;2022-09-30T05:07:21;93533.28;;;13.59;100.00
20111;BME280;10216;42.658;23.248;2022-09-30T05:09:47;93524.84;;;13.72;100.00
20111;BME280;10216;42.658;23.248;2022-09-30T05:12:12;93519.09;;;13.77;100.00
20111;BME280;10216;42.658;23.248;2022-09-30T05:14:39;93535.81;;;13.53;100.00
20111;BME280;10216;42.658;23.248;2022-09-30T05:17:05;93543.47;;;13.67;100.00
20111;BME280;10216;42.658;23.248;2022-09-30T05:19:30;93554.75;;;13.66;100.00
20111;BME280;10216;42.658;23.248;2022-09-30T05:21:56;93547.72;;;13.54;100.00
20111;BME280;10216;42.658;23.248;2022-09-30T05:24:21;93554.19;;;13.71;100.00
20111;BME280;10216;42.658;23.248;2022-09-30T05:26:46;93554.38;;;13.69;100.00
20111;BME280;10216;42.658;23.248;2022-09-30T05:29:12;93554.25;;;13.78;100.00
20111;BME280;10216;42.658;23.248;2022-09-30T05:31:39;93547.34;;;13.85;100.00
20111;BME280;10216;42.658;23.248;2022-09-30T05:34:06;93543.56;;;13.81;100.00
20111;BME280;10216;42.658;23.248;2022-09-30T05:36:34;93557.25;;;13.81;100.00
20111;BME280;10216;42.658;23.248;2022-09-30T05:38:59;93555.47;;;13.82;100.00
20111;BME280;10216;42.658;23.248;2022-09-30T05:41:24;93558.16;;;13.95;100.00
20111;BME280;10216;42.658;23.248;2022-09-30T05:43:50;93560.06;;;14.14;100.00
20111;BME280;10216;42.658;23.248;2022-09-30T05:46:17;93565.91;;;14.29;100.00
20111;BME280;10216;42.658;23.248;2022-09-30T05:48:43;93572.38;;;14.40;100.00
20111;BME280;10216;42.658;23.248;2022-09-30T05:51:09;93582.50;;;14.41;100.00
20111;BME280;10216;42.658;23.248;2022-09-30T05:53:36;93576.84;;;14.31;100.00
20111;BME280;10216;42.658;23.248;2022-09-30T05:56:05;93564.03;;;14.44;100.00
20111;BME280;10216;42.658;23.248;2022-09-30T05:58:30;93577.94;;;14.43;100.00
20111;BME280;10216;42.658;23.248;2022-09-30T06:00:56;93578.66;;;14.65;100.00
20111;BME280;10216;42.658;23.248;2022-09-30T06:03:21;93583.81;;;14.65;100.00
20111;BME280;10216;42.658;23.248;2022-09-30T06:05:47;93588.59;;;14.62;100.00
20111;BME280;10216;42.658;23.248;2022-09-30T06:08:13;93582.16;;;14.51;100.00
20111;BME280;10216;42.658;23.248;2022-09-30T06:10:43;93577.47;;;14.68;100.00
20111;BME280;10216;42.658;23.248;2022-09-30T06:13:09;93586.50;;;14.92;100.00
20111;BME280;10216;42.658;23.248;2022-09-30T06:15:35;93578.56;;;14.93;100.00
20111;BME280;10216;42.658;23.248;2022-09-30T06:18:03;93582.59;;;15.09;100.00
20111;BME280;10216;42.658;23.248;2022-09-30T06:20:28;93587.41;;;15.18;100.00
20111;BME280;10216;42.658;23.248;2022-09-30T06:22:58;93587.25;;;15.27;100.00
20111;BME280;10216;42.658;23.248;2022-09-30T06:25:23;93587.28;;;15.40;100.00
20111;BME280;10216;42.658;23.248;2022-09-30T06:27:48;93598.00;;;15.50;100.00
20111;BME280;10216;42.658;23.248;2022-09-30T06:30:14;93597.63;;;15.46;100.00
20111;BME280;10216;42.658;23.248;2022-09-30T06:32:40;93603.59;;;15.47;100.00
20111;BME280;10216;42.658;23.248;2022-09-30T06:35:07;93611.41;;;15.60;100.00
20111;BME280;10216;42.658;23.248;2022-09-30T06:37:32;93612.03;;;15.88;100.00
20111;BME280;10216;42.658;23.248;2022-09-30T06:40:04;93617.59;;;15.79;100.00
20111;BME280;10216;42.658;23.248;2022-09-30T06:42:30;93622.00;;;15.91;100.00
20111;BME280;10216;42.658;23.248;2022-09-30T06:44:55;93635.75;;;16.18;100.00
20111;BME280;10216;42.658;23.248;2022-09-30T06:47:21;93636.34;;;16.00;100.00
20111;BME280;10216;42.658;23.248;2022-09-30T06:49:46;93629.06;;;15.50;100.00
20111;BME280;10216;42.658;23.248;2022-09-30T06:52:12;93640.19;;;15.44;100.00
20111;BME280;10216;42.658;23.248;2022-09-30T06:54:39;93645.84;;;15.54;100.00
20111;BME280;10216;42.658;23.248;2022-09-30T06:57:07;93647.47;;;15.75;100.00
20111;BME280;10216;42.658;23.248;2022-09-30T06:59:33;93652.66;;;15.94;100.00
20111;BME280;10216;42.658;23.248;2022-09-30T07:01:58;93656.66;;;16.43;100.00
20111;BME280;10216;42.658;23.248;2022-09-30T07:04:23;93659.44;;;16.81;100.00
20111;BME280;10216;42.658;23.248;2022-09-30T07:06:49;93655.34;;;17.18;100.00
20111;BME280;10216;42.658;23.248;2022-09-30T07:09:15;93665.66;;;17.31;100.00
20111;BME280;10216;42.658;23.248;2022-09-30T07:11:40;93675.69;;;17.21;100.00
20111;BME280;10216;42.658;23.248;2022-09-30T07:14:06;93661.38;;;17.05;100.00
20111;BME280;10216;42.658;23.248;2022-09-30T07:16:32;93673.91;;;17.15;100.00
20111;BME280;10216;42.658;23.248;2022-09-30T07:19:00;93671.59;;;17.45;100.00
20111;BME280;10216;42.658;23.248;2022-09-30T07:21:26;93672.03;;;17.42;99.84
20111;BME280;10216;42.658;23.248;2022-09-30T07:23:51;93672.13;;;17.60;100.00
20111;BME280;10216;42.658;23.248;2022-09-30T07:26:19;93679.88;;;17.73;99.83
20111;BME280;10216;42.658;23.248;2022-09-30T07:28:45;93679.97;;;17.91;98.74
20111;BME280;10216;42.658;23.248;2022-09-30T07:31:16;93692.69;;;17.68;98.42
20111;BME280;10216;42.658;23.248;2022-09-30T07:33:43;93687.72;;;17.98;96.90
20111;BME280;10216;42.658;23.248;2022-09-30T07:36:09;93685.53;;;17.95;96.03
20111;BME280;10216;42.658;23.248;2022-09-30T07:38:37;93674.16;;;17.51;96.45
20111;BME280;10216;42.658;23.248;2022-09-30T07:41:09;93678.94;;;17.54;100.00
20111;BME280;10216;42.658;23.248;2022-09-30T07:43:38;93682.53;;;17.98;100.00
20111;BME280;10216;42.658;23.248;2022-09-30T07:46:12;93686.63;;;18.44;98.24
20111;BME280;10216;42.658;23.248;2022-09-30T07:48:40;93689.28;;;18.30;95.39
20111;BME280;10216;42.658;23.248;2022-09-30T07:51:13;93680.38;;;18.45;95.55
20111;BME280;10216;42.658;23.248;2022-09-30T07:53:40;93689.16;;;18.50;93.95
20111;BME280;10216;42.658;23.248;2022-09-30T07:56:07;93687.53;;;18.56;92.79
20111;BME280;10216;42.658;23.248;2022-09-30T07:58:34;93693.13;;;18.53;94.25
20111;BME280;10216;42.658;23.248;2022-09-30T08:01:00;93706.06;;;18.34;93.10
20111;BME280;10216;42.658;23.248;2022-09-30T08:03:25;93706.22;;;18.40;92.21
20111;BME280;10216;42.658;23.248;2022-09-30T08:05:50;93708.94;;;18.58;92.54
20111;BME280;10216;42.658;23.248;2022-09-30T08:08:16;93700.13;;;18.52;93.26
20111;BME280;10216;42.658;23.248;2022-09-30T08:10:42;93715.44;;;18.67;92.84
20111;BME280;10216;42.658;23.248;2022-09-30T08:13:08;93708.94;;;18.58;91.09
20111;BME280;10216;42.658;23.248;2022-09-30T08:15:34;93705.09;;;18.85;92.97
20111;BME280;10216;42.658;23.248;2022-09-30T08:17:59;93714.38;;;18.99;92.36
20111;BME280;10216;42.658;23.248;2022-09-30T08:20:25;93722.44;;;19.09;91.55
20111;BME280;10216;42.658;23.248;2022-09-30T08:22:52;93714.63;;;18.91;90.50
20111;BME280;10216;42.658;23.248;2022-09-30T08:25:17;93716.53;;;19.02;90.97
20111;BME280;10216;42.658;23.248;2022-09-30T08:27:43;93720.88;;;19.27;89.94
20111;BME280;10216;42.658;23.248;2022-09-30T08:30:08;93729.56;;;19.39;89.81
20111;BME280;10216;42.658;23.248;2022-09-30T08:32:34;93740.63;;;19.34;89.14
20111;BME280;10216;42.658;23.248;2022-09-30T08:34:59;93744.19;;;19.40;88.69
20111;BME280;10216;42.658;23.248;2022-09-30T08:37:25;93729.31;;;19.47;88.76
20111;BME280;10216;42.658;23.248;2022-09-30T08:39:50;93743.78;;;19.61;86.54
20111;BME280;10216;42.658;23.248;2022-09-30T08:42:25;93739.28;;;19.86;86.33
20111;BME280;10216;42.658;23.248;2022-09-30T08:48:20;93736.00;;;20.21;83.87
20111;BME280;10216;42.658;23.248;2022-09-30T08:53:41;93740.63;;;20.37;77.58
20111;BME280;10216;42.658;23.248;2022-09-30T08:56:16;93738.41;;;20.52;78.65
20111;BME280;10216;42.658;23.248;2022-09-30T08:58:45;93743.19;;;20.79;81.86
20111;BME280;10216;42.658;23.248;2022-09-30T09:01:17;93738.09;;;20.95;78.52
20111;BME280;10216;42.658;23.248;2022-09-30T09:03:45;93752.19;;;21.29;78.86
20111;BME280;10216;42.658;23.248;2022-09-30T09:06:25;93756.72;;;21.34;75.75
20111;BME280;10216;42.658;23.248;2022-09-30T09:11:50;93751.00;;;21.72;76.13
20111;BME280;10216;42.658;23.248;2022-09-30T09:22:29;93774.41;;;23.81;67.73
20111;BME280;10216;42.658;23.248;2022-09-30T09:24:56;93774.69;;;23.62;68.35
20111;BME280;10216;42.658;23.248;2022-09-30T09:27:44;93767.94;;;24.32;64.91
20111;BME280;10216;42.658;23.248;2022-09-30T09:30:13;93769.41;;;24.76;64.20
20111;BME280;10216;42.658;23.248;2022-09-30T09:32:41;93767.25;;;25.32;61.87
20111;BME280;10216;42.658;23.248;2022-09-30T09:35:23;93771.38;;;26.12;57.09
20111;BME280;10216;42.658;23.248;2022-09-30T09:38:09;93751.34;;;26.06;50.89
20111;BME280;10216;42.658;23.248;2022-09-30T09:41:32;93756.91;;;26.15;46.37
20111;BME280;10216;42.658;23.248;2022-09-30T09:46:37;93768.41;;;27.32;51.38
20111;BME280;10216;42.658;23.248;2022-09-30T09:52:02;93750.28;;;29.37;41.07
20111;BME280;10216;42.658;23.248;2022-09-30T09:54:33;93753.88;;;30.41;40.87
20111;BME280;10216;42.658;23.248;2022-09-30T09:57:05;93752.41;;;31.10;43.13
20111;BME280;10216;42.658;23.248;2022-09-30T09:59:33;93758.59;;;31.98;41.81
20111;BME280;10216;42.658;23.248;2022-09-30T10:01:59;93755.63;;;31.99;38.86
20111;BME280;10216;42.658;23.248;2022-09-30T10:04:26;93771.28;;;32.28;38.72
20111;BME280;10216;42.658;23.248;2022-09-30T10:07:01;93759.13;;;33.21;36.23
20111;BME280;10216;42.658;23.248;2022-09-30T10:09:38;93779.13;;;34.25;36.89
20111;BME280;10216;42.658;23.248;2022-09-30T10:14:35;93784.25;;;34.70;37.23
20111;BME280;10216;42.658;23.248;2022-09-30T10:17:03;93768.81;;;35.61;33.67
20111;BME280;10216;42.658;23.248;2022-09-30T10:19:31;93768.09;;;35.99;33.18
20111;BME280;10216;42.658;23.248;2022-09-30T10:24:35;93745.34;;;34.86;32.09
20111;BME280;10216;42.658;23.248;2022-09-30T10:27:01;93739.28;;;33.50;36.58
20111;BME280;10216;42.658;23.248;2022-09-30T10:31:59;93741.06;;;33.32;34.51
20111;BME280;10216;42.658;23.248;2022-09-30T10:34:33;93742.97;;;33.18;33.93
20111;BME280;10216;42.658;23.248;2022-09-30T10:37:01;93743.16;;;34.79;29.72
20111;BME280;10216;42.658;23.248;2022-09-30T10:39:36;93743.13;;;36.24;31.04
20111;BME280;10216;42.658;23.248;2022-09-30T10:42:18;93753.91;;;35.52;29.84
20111;BME280;10216;42.658;23.248;2022-09-30T10:47:18;93742.84;;;34.16;29.67
20111;BME280;10216;42.658;23.248;2022-09-30T10:49:49;93756.97;;;34.90;29.56
20111;BME280;10216;42.658;23.248;2022-09-30T10:52:25;93755.94;;;36.10;28.81
20111;BME280;10216;42.658;23.248;2022-09-30T10:57:24;93754.38;;;35.62;29.67
20111;BME280;10216;42.658;23.248;2022-09-30T11:00:04;93761.06;;;35.22;29.81
20111;BME280;10216;42.658;23.248;2022-09-30T11:02:38;93768.63;;;36.30;28.69
20111;BME280;10216;42.658;23.248;2022-09-30T11:05:21;93752.31;;;37.48;27.32
20111;BME280;10216;42.658;23.248;2022-09-30T11:08:00;93770.41;;;36.47;26.67
20111;BME280;10216;42.658;23.248;2022-09-30T11:10:47;93767.25;;;37.70;28.24
20111;BME280;10216;42.658;23.248;2022-09-30T11:13:54;93753.97;;;37.73;25.84
20111;BME280;10216;42.658;23.248;2022-09-30T11:19:27;93754.56;;;38.64;25.48
20111;BME280;10216;42.658;23.248;2022-09-30T11:22:21;93751.09;;;37.58;26.58
20111;BME280;10216;42.658;23.248;2022-09-30T11:24:47;93759.38;;;37.52;26.00
20111;BME280;10216;42.658;23.248;2022-09-30T11:30:03;93757.25;;;38.64;26.32
20111;BME280;10216;42.658;23.248;2022-09-30T11:35:48;93761.84;;;38.27;26.37
20111;BME280;10216;42.658;23.248;2022-09-30T11:47:10;93762.63;;;38.40;26.10
20111;BME280;10216;42.658;23.248;2022-09-30T11:50:09;93765.22;;;38.24;26.80
20111;BME280;10216;42.658;23.248;2022-09-30T11:55:45;93767.25;;;36.74;28.84
20111;BME280;10216;42.658;23.248;2022-09-30T11:58:20;93771.28;;;35.92;28.41
20111;BME280;10216;42.658;23.248;2022-09-30T12:00:59;93759.34;;;33.25;31.63
20111;BME280;10216;42.658;23.248;2022-09-30T12:03:33;93757.69;;;32.30;32.01
20111;BME280;10216;42.658;23.248;2022-09-30T12:06:06;93761.53;;;31.69;33.30
20111;BME280;10216;42.658;23.248;2022-09-30T12:08:45;93769.47;;;31.04;34.15
20111;BME280;10216;42.658;23.248;2022-09-30T12:11:28;93765.00;;;30.01;35.01
20111;BME280;10216;42.658;23.248;2022-09-30T12:13:59;93775.50;;;30.72;34.50
20111;BME280;10216;42.658;23.248;2022-09-30T12:16:30;93775.78;;;32.00;33.25
20111;BME280;10216;42.658;23.248;2022-09-30T12:19:03;93780.03;;;32.70;32.45
20111;BME280;10216;42.658;23.248;2022-09-30T12:21:43;93778.41;;;34.51;31.30
20111;BME280;10216;42.658;23.248;2022-09-30T12:24:23;93785.09;;;36.91;28.53
20111;BME280;10216;42.658;23.248;2022-09-30T12:26:50;93789.94;;;39.74;29.06
20111;BME280;10216;42.658;23.248;2022-09-30T12:48:03;93800.28;;;42.66;22.90
20111;BME280;10216;42.658;23.248;2022-09-30T12:50:40;93810.03;;;40.71;23.47
20111;BME280;10216;42.658;23.248;2022-09-30T12:53:23;93799.31;;;42.28;23.10
20111;BME280;10216;42.658;23.248;2022-09-30T12:55:50;93807.06;;;42.79;22.24
20111;BME280;10216;42.658;23.248;2022-09-30T12:58:27;93791.88;;;40.52;23.66
20111;BME280;10216;42.658;23.248;2022-09-30T13:01:05;93801.97;;;40.08;24.29
20111;BME280;10216;42.658;23.248;2022-09-30T13:03:51;93793.25;;;39.39;23.85
20111;BME280;10216;42.658;23.248;2022-09-30T13:06:19;93800.75;;;40.21;23.60
20111;BME280;10216;42.658;23.248;2022-09-30T13:19:39;93797.78;;;39.51;24.09
20111;BME280;10216;42.658;23.248;2022-09-30T13:32:41;93776.63;;;29.52;35.62
20111;BME280;10216;42.658;23.248;2022-09-30T13:35:33;93770.53;;;28.34;36.86
20111;BME280;10216;42.658;23.248;2022-09-30T13:40:46;93776.06;;;27.33;39.01
20111;BME280;10216;42.658;23.248;2022-09-30T13:43:42;93764.97;;;26.86;39.44
20111;BME280;10216;42.658;23.248;2022-09-30T13:46:27;93764.91;;;26.35;43.10
20111;BME280;10216;42.658;23.248;2022-09-30T13:48:59;93772.88;;;25.93;40.38
20111;BME280;10216;42.658;23.248;2022-09-30T13:51:29;93776.09;;;25.58;41.81
20111;BME280;10216;42.658;23.248;2022-09-30T13:54:01;93779.69;;;25.47;43.38
20111;BME280;10216;42.658;23.248;2022-09-30T13:56:35;93771.00;;;25.41;40.88
20111;BME280;10216;42.658;23.248;2022-09-30T14:02:11;93773.91;;;25.08;42.60
20111;BME280;10216;42.658;23.248;2022-09-30T14:16:08;93785.69;;;24.03;47.63
20111;BME280;10216;42.658;23.248;2022-09-30T14:21:49;93792.09;;;23.90;47.32
20111;BME280;10216;42.658;23.248;2022-09-30T14:24:23;93785.50;;;23.88;45.81
20111;BME280;10216;42.658;23.248;2022-09-30T14:29:21;93790.88;;;23.98;48.16
20111;BME280;10216;42.658;23.248;2022-09-30T14:31:49;93786.72;;;23.80;51.92
20111;BME280;10216;42.658;23.248;2022-09-30T14:34:15;93796.88;;;23.38;54.80
20111;BME280;10216;42.658;23.248;2022-09-30T14:36:43;93793.38;;;23.32;49.72
20111;BME280;10216;42.658;23.248;2022-09-30T14:39:22;93802.56;;;23.35;49.83
20111;BME280;10216;42.658;23.248;2022-09-30T14:41:56;93808.38;;;23.20;49.85
20111;BME280;10216;42.658;23.248;2022-09-30T14:44:24;93803.63;;;23.17;51.30
20111;BME280;10216;42.658;23.248;2022-09-30T14:46:52;93803.56;;;23.12;48.29
20111;BME280;10216;42.658;23.248;2022-09-30T14:49:24;93802.03;;;23.16;50.18
20111;BME280;10216;42.658;23.248;2022-09-30T14:51:57;93804.31;;;23.13;52.02
20111;BME280;10216;42.658;23.248;2022-09-30T14:54:28;93811.88;;;23.09;53.52
20111;BME280;10216;42.658;23.248;2022-09-30T14:56:55;93811.00;;;23.04;55.33
20111;BME280;10216;42.658;23.248;2022-09-30T14:59:32;93817.59;;;22.89;53.40
20111;BME280;10216;42.658;23.248;2022-09-30T15:02:16;93808.44;;;22.75;58.15
20111;BME280;10216;42.658;23.248;2022-09-30T15:04:48;93822.56;;;22.46;56.91
20111;BME280;10216;42.658;23.248;2022-09-30T15:07:15;93823.50;;;22.40;56.14
20111;BME280;10216;42.658;23.248;2022-09-30T15:09:42;93813.72;;;22.35;58.79
20111;BME280;10216;42.658;23.248;2022-09-30T15:12:21;93821.97;;;22.15;60.64
20111;BME280;10216;42.658;23.248;2022-09-30T15:14:50;93821.66;;;22.00;61.03
20111;BME280;10216;42.658;23.248;2022-09-30T15:19:46;93827.97;;;21.53;64.06
20111;BME280;10216;42.658;23.248;2022-09-30T15:22:14;93829.31;;;21.43;65.26
20111;BME280;10216;42.658;23.248;2022-09-30T15:24:41;93833.97;;;21.30;66.21
20111;BME280;10216;42.658;23.248;2022-09-30T15:27:15;93840.75;;;21.19;67.55
20111;BME280;10216;42.658;23.248;2022-09-30T15:29:57;93846.69;;;20.96;67.02
20111;BME280;10216;42.658;23.248;2022-09-30T15:32:26;93852.38;;;20.82;67.97
20111;BME280;10216;42.658;23.248;2022-09-30T15:34:52;93859.25;;;20.46;65.12
20111;BME280;10216;42.658;23.248;2022-09-30T15:37:24;93865.22;;;20.35;68.34
20111;BME280;10216;42.658;23.248;2022-09-30T15:39:51;93871.38;;;20.22;69.26
20111;BME280;10216;42.658;23.248;2022-09-30T15:42:38;93873.75;;;20.06;69.66
20111;BME280;10216;42.658;23.248;2022-09-30T15:47:57;93874.31;;;19.71;71.11
20111;BME280;10216;42.658;23.248;2022-09-30T15:50:44;93877.13;;;19.52;72.06
20111;BME280;10216;42.658;23.248;2022-09-30T15:55:52;93880.28;;;19.29;72.87
20111;BME280;10216;42.658;23.248;2022-09-30T16:00:52;93887.66;;;19.07;74.91
20111;BME280;10216;42.658;23.248;2022-09-30T16:03:28;93895.56;;;18.94;75.62
20111;BME280;10216;42.658;23.248;2022-09-30T16:06:10;93899.81;;;18.82;75.19
20111;BME280;10216;42.658;23.248;2022-09-30T16:08:48;93906.28;;;18.66;75.68
20111;BME280;10216;42.658;23.248;2022-09-30T16:11:22;93901.75;;;18.55;75.46